createdAt,value
2019-03-21T00:00:26.272Z,100916.40
2019-03-21T00:05:35.564Z,100921.31
2019-03-21T00:11:17.755Z,100927.59
2019-03-21T00:16:37.067Z,100928.43
2019-03-21T00:21:44.328Z,100923.75
2019-03-21T00:26:56.172Z,100911.86
2019-03-21T00:32:05.420Z,100905.69
2019-03-21T00:37:13.731Z,100900.64
2019-03-21T00:42:20.556Z,100898.88
2019-03-21T00:47:27.524Z,100900.28
2019-03-21T00:52:36.811Z,100883.25
2019-03-21T00:57:44.576Z,100880.19
2019-03-21T01:02:55.937Z,100871.98
2019-03-21T01:08:09.323Z,100867.20
2019-03-21T01:13:17.654Z,100853.77
2019-03-21T01:18:26.991Z,100852.82
2019-03-21T01:23:40.540Z,100849.28
2019-03-21T01:29:06.268Z,100839.59
2019-03-21T01:34:14.707Z,100833.81
2019-03-21T01:39:23.324Z,100833.24
2019-03-21T01:44:41.070Z,100827.09
2019-03-21T01:49:44.103Z,100821.19
2019-03-21T01:54:53.255Z,100814.52
2019-03-21T02:00:00.862Z,100819.03
2019-03-21T02:05:14.079Z,100820.05
2019-03-21T02:10:23.117Z,100811.44
2019-03-21T02:15:33.173Z,100809.14
2019-03-21T02:20:43.212Z,100816.09
2019-03-21T02:25:52.368Z,100808.66
2019-03-21T02:31:02.229Z,100817.50
2019-03-21T02:36:10.341Z,100818.24
2019-03-21T02:41:18.415Z,100819.87
2019-03-21T02:46:27.397Z,100814.98
2019-03-21T02:51:36.713Z,100824.48
2019-03-21T02:56:51.819Z,100821.97
2019-03-21T03:02:01.814Z,100819.95
2019-03-21T03:07:19.857Z,100820.86
2019-03-21T03:12:36.553Z,100833.23
2019-03-21T03:17:47.863Z,100820.84
2019-03-21T03:23:04.403Z,100833.34
2019-03-21T03:28:20.702Z,100834.12
2019-03-21T03:33:29.157Z,100836.59
2019-03-21T03:38:36.387Z,100838.93
2019-03-21T03:43:47.375Z,100840.21
2019-03-21T03:48:56.225Z,100850.98
2019-03-21T03:54:06.153Z,100849.03
2019-03-21T03:59:14.429Z,100837.66
2019-03-21T04:04:33.358Z,100846.00
2019-03-21T04:09:42.345Z,100845.70
2019-03-21T04:14:53.115Z,100838.24
2019-03-21T04:20:01.977Z,100842.88
2019-03-21T04:25:12.586Z,100839.91
2019-03-21T04:30:20.570Z,100842.85
2019-03-21T04:35:30.198Z,100847.86
2019-03-21T04:40:44.108Z,100848.95
2019-03-21T04:46:02.929Z,100849.91
2019-03-21T04:51:06.357Z,100850.63
2019-03-21T04:56:13.968Z,100844.80
2019-03-21T05:01:22.910Z,100858.17
2019-03-21T05:06:38.467Z,100854.11
2019-03-21T05:11:47.209Z,100867.22
2019-03-21T05:16:56.263Z,100867.87
2019-03-21T05:22:05.831Z,100875.81
2019-03-21T05:27:15.313Z,100876.10
2019-03-21T05:32:22.745Z,100882.96
2019-03-21T05:37:34.565Z,100882.78
2019-03-21T05:42:45.089Z,100894.34
2019-03-21T05:47:51.900Z,100900.20
2019-03-21T05:53:06.762Z,100912.33
2019-03-21T05:59:12.304Z,100912.16
2019-03-21T06:04:39.957Z,100908.80
2019-03-21T06:09:48.687Z,100911.26
2019-03-21T06:15:04.299Z,100904.73
2019-03-21T06:20:43.077Z,100907.73
2019-03-21T06:26:32.521Z,100920.77
2019-03-21T06:31:39.459Z,100909.47
2019-03-21T06:36:50.051Z,100914.03
2019-03-21T06:41:59.849Z,100914.16
2019-03-21T06:47:07.079Z,100916.86
2019-03-21T06:52:14.211Z,100916.24
2019-03-21T06:57:21.687Z,100911.31
2019-03-21T07:02:31.152Z,100901.50
2019-03-21T07:07:38.339Z,100908.23
2019-03-21T07:12:45.937Z,100894.64
2019-03-21T07:17:53.241Z,100904.45
2019-03-21T07:23:00.104Z,100899.75
2019-03-21T07:28:13.321Z,100898.11
2019-03-21T07:33:22.829Z,100894.63
2019-03-21T07:38:33.911Z,100900.72
2019-03-21T07:43:42.299Z,100904.06
2019-03-21T07:48:50.488Z,100904.78
2019-03-21T07:54:00.476Z,100907.86
2019-03-21T07:59:10.569Z,100907.09
2019-03-21T08:04:17.681Z,100909.30
2019-03-21T08:09:28.359Z,100914.31
2019-03-21T08:14:39.195Z,100911.22
2019-03-21T08:19:48.551Z,100913.00
2019-03-21T08:24:58.694Z,100914.59
2019-03-21T08:30:07.902Z,100914.89
2019-03-21T08:35:18.988Z,100919.95
2019-03-21T08:40:27.969Z,100915.88
2019-03-21T08:45:35.233Z,100918.02
2019-03-21T08:50:44.167Z,100926.22
2019-03-21T08:55:54.686Z,100936.02
2019-03-21T09:01:01.690Z,100937.32
2019-03-21T09:06:11.122Z,100939.73
2019-03-21T09:11:18.418Z,100930.96
2019-03-21T09:16:26.460Z,100930.12
2019-03-21T09:21:38.598Z,100935.47
2019-03-21T09:26:45.482Z,100926.55
2019-03-21T09:31:52.243Z,100929.42
2019-03-21T09:37:03.989Z,100933.52
2019-03-21T09:42:10.241Z,100939.57
2019-03-21T09:52:24.975Z,100933.66
2019-03-21T09:57:31.971Z,100932.59
2019-03-21T10:02:39.222Z,100932.27
2019-03-21T10:07:46.287Z,100929.56
2019-03-21T10:12:55.433Z,100929.92
2019-03-21T10:18:01.810Z,100931.42
2019-03-21T10:23:09.870Z,100916.53
2019-03-21T10:28:16.734Z,100917.42
2019-03-21T10:33:28.384Z,100916.12
2019-03-21T10:38:36.023Z,100914.58
2019-03-21T10:43:47.579Z,100908.05
2019-03-21T10:48:54.640Z,100907.32
2019-03-21T10:54:01.520Z,100905.82
2019-03-21T10:59:08.885Z,100898.73
2019-03-21T11:04:17.141Z,100900.58
2019-03-21T11:09:27.313Z,100898.66
2019-03-21T11:14:36.027Z,100892.94
2019-03-21T11:19:44.357Z,100888.98
2019-03-21T11:24:53.769Z,100887.81
2019-03-21T11:30:00.833Z,100874.77
2019-03-21T11:35:07.783Z,100869.92
2019-03-21T11:40:20.581Z,100864.55
2019-03-21T11:45:29.797Z,100854.03
2019-03-21T11:50:39.476Z,100838.33
2019-03-21T11:55:49.817Z,100834.94
2019-03-21T12:00:57.051Z,100824.86
2019-03-21T12:06:06.844Z,100824.22
2019-03-21T12:11:16.452Z,100817.09
2019-03-21T12:16:24.876Z,100802.26
2019-03-21T12:21:35.592Z,100798.22
2019-03-21T12:26:42.303Z,100800.55
2019-03-21T12:31:49.327Z,100793.80
2019-03-21T12:36:56.063Z,100792.02
2019-03-21T12:42:12.427Z,100789.02
2019-03-21T12:47:30.853Z,100784.16
2019-03-21T12:52:41.316Z,100775.48
2019-03-21T12:57:47.432Z,100775.17
2019-03-21T13:02:54.804Z,100779.33
2019-03-21T13:08:06.589Z,100766.72
2019-03-21T13:13:15.208Z,100763.02
2019-03-21T13:18:22.112Z,100762.20
2019-03-21T13:23:32.492Z,100752.00
2019-03-21T13:28:45.151Z,100753.29
2019-03-21T13:33:51.923Z,100741.81
2019-03-21T13:38:58.931Z,100736.10
2019-03-21T13:44:09.175Z,100736.22
2019-03-21T13:49:20.178Z,100735.28
2019-03-21T13:54:27.582Z,100728.23
2019-03-21T13:59:34.800Z,100718.61
2019-03-21T14:04:42.740Z,100705.20
2019-03-21T14:09:51.593Z,100696.61
2019-03-21T14:15:01.525Z,100700.77
2019-03-21T14:20:11.840Z,100693.66
2019-03-21T14:25:19.564Z,100685.16
2019-03-21T14:30:27.124Z,100676.42
2019-03-21T14:35:34.474Z,100687.55
2019-03-21T14:40:42.654Z,100674.05
2019-03-21T14:45:53.425Z,100662.83
2019-03-21T14:51:05.529Z,100672.16
2019-03-21T14:56:16.539Z,100659.70
2019-03-21T15:01:23.953Z,100656.12
2019-03-21T15:06:31.112Z,100666.80
2019-03-21T15:11:42.535Z,100660.55
2019-03-21T15:16:52.452Z,100652.53
2019-03-21T15:22:03.704Z,100658.84
2019-03-21T15:27:14.272Z,100663.68
2019-03-21T15:32:25.181Z,100667.59
2019-03-21T15:37:33.378Z,100665.76
2019-03-21T15:42:43.327Z,100661.88
2019-03-21T15:47:50.590Z,100662.21
2019-03-21T15:52:58.661Z,100664.41
2019-03-21T15:58:08.284Z,100661.47
2019-03-21T16:03:21.178Z,100655.05
2019-03-21T16:08:29.299Z,100656.16
2019-03-21T16:13:47.563Z,100652.77
2019-03-21T16:18:58.042Z,100656.72
2019-03-21T16:24:05.869Z,100657.70
2019-03-21T16:29:14.319Z,100654.61
2019-03-21T16:34:21.592Z,100653.27
2019-03-21T16:39:32.457Z,100653.64
2019-03-21T16:44:39.669Z,100658.92
2019-03-21T16:49:49.736Z,100657.45
2019-03-21T16:55:00.945Z,100649.67
2019-03-21T17:00:13.600Z,100652.55
2019-03-21T17:05:22.328Z,100655.64
2019-03-21T17:10:30.856Z,100659.26
2019-03-21T17:15:42.778Z,100664.64
2019-03-21T17:20:51.805Z,100670.24
2019-03-21T17:26:00.348Z,100679.56
2019-03-21T17:31:10.669Z,100681.52
2019-03-21T17:36:22.623Z,100683.91
2019-03-21T17:41:30.684Z,100690.30
2019-03-21T17:46:38.685Z,100686.50
2019-03-21T17:51:48.517Z,100695.94
2019-03-21T17:56:56.836Z,100705.53
2019-03-21T18:02:04.808Z,100708.31
2019-03-21T18:07:16.679Z,100716.37
2019-03-21T18:12:36.601Z,100714.11
2019-03-21T18:17:47.353Z,100712.14
2019-03-21T18:22:58.878Z,100726.75
2019-03-21T18:28:09.097Z,100730.28
2019-03-21T18:33:22.318Z,100725.11
2019-03-21T18:38:35.923Z,100720.84
2019-03-21T18:43:56.557Z,100728.84
2019-03-21T18:49:08.907Z,100734.94
2019-03-21T18:54:20.877Z,100725.67
2019-03-21T18:59:32.138Z,100721.90
2019-03-21T19:04:41.776Z,100727.38
2019-03-21T19:09:51.237Z,100730.28
2019-03-21T19:15:01.002Z,100734.91
2019-03-21T19:20:13.127Z,100725.49
2019-03-21T19:25:23.220Z,100732.98
2019-03-21T19:30:31.073Z,100732.62
2019-03-21T19:35:40.152Z,100739.73
2019-03-21T19:40:52.364Z,100722.88
2019-03-21T19:46:01.629Z,100727.31
2019-03-21T19:51:11.293Z,100724.05
2019-03-21T19:56:24.076Z,100735.87
2019-03-21T20:01:33.667Z,100732.20
2019-03-21T20:06:44.295Z,100737.45
2019-03-21T20:11:53.916Z,100741.02
2019-03-21T20:17:04.110Z,100749.70
2019-03-21T20:22:13.650Z,100749.73
2019-03-21T20:27:25.288Z,100745.11
2019-03-21T20:32:38.913Z,100747.05
2019-03-21T20:37:55.059Z,100737.58
2019-03-21T20:43:05.831Z,100743.45
2019-03-21T20:48:31.786Z,100746.66
2019-03-21T20:53:39.954Z,100734.97
2019-03-21T20:58:53.540Z,100741.09
2019-03-21T21:04:05.144Z,100741.95
2019-03-21T21:09:15.011Z,100735.28
2019-03-21T21:14:26.470Z,100731.41
2019-03-21T21:19:35.419Z,100734.74
2019-03-21T21:24:50.784Z,100743.80
2019-03-21T21:29:54.240Z,100741.03
2019-03-21T21:35:01.912Z,100745.63
2019-03-21T21:40:14.096Z,100748.96
2019-03-21T21:45:22.924Z,100737.02
2019-03-21T21:50:31.663Z,100735.36
2019-03-21T21:55:41.078Z,100741.83
2019-03-21T22:00:51.281Z,100734.80
2019-03-21T22:06:00.315Z,100739.44
2019-03-21T22:11:11.287Z,100738.31
2019-03-21T22:16:18.889Z,100739.33
2019-03-21T22:21:29.476Z,100739.81
2019-03-21T22:26:37.699Z,100748.66
2019-03-21T22:31:46.906Z,100747.92
2019-03-21T22:36:55.727Z,100740.87
2019-03-21T22:42:04.905Z,100746.42
2019-03-21T22:47:16.530Z,100750.29
2019-03-21T22:52:24.190Z,100750.53
2019-03-21T22:57:39.178Z,100747.77
2019-03-21T23:02:50.616Z,100749.50
2019-03-21T23:07:57.956Z,100738.87
2019-03-21T23:13:08.109Z,100743.92
2019-03-21T23:18:16.716Z,100743.13
2019-03-21T23:23:25.157Z,100736.20
2019-03-21T23:28:35.821Z,100741.58
2019-03-21T23:33:45.264Z,100731.06
2019-03-21T23:38:54.643Z,100730.92
2019-03-21T23:44:02.226Z,100726.56
2019-03-21T23:49:19.810Z,100723.53
2019-03-21T23:59:41.423Z,100728.08
